Flight Track Log - Related Links

Times and Time Zones

All times are in EDT time to prevent confusion due to time zone crossing. See the N509QS flight status page for this flight to view local times or setup timezone preferences in your user account.

Time Position Orientation Groundspeed Altitude Reporting Facility
EDT Latitude Longitude Course Direction KTS MPH feet Rate Location/Type
Fri 01:46:29 PM 34.3944 -77.9628 338° Northwest 304 350 9,900  Level Washington Center
Fri 01:47:27 PM 34.4853 -77.9175 22° Northeast 323 372 13,100 3,661 Climbing Washington Center
Fri 01:48:27 PM 34.5819 -77.8800 18° North 347 399 17,100 3,750 Climbing Washington Center
Fri 01:49:27 PM 34.6906 -77.8728 North 364 419 20,600 3,273 Climbing Washington Center
Fri 01:50:28 PM 34.8053 -77.8711 North 388 447 23,700 2,850 Climbing Washington Center
Fri 01:51:27 PM 34.9075 -77.8664 North 400 460 26,300 2,622 Climbing Washington Center
Fri 01:52:27 PM 35.0308 -77.8622 North 423 487 28,900 2,361 Climbing Washington Center
Fri 01:53:29 PM 35.1581 -77.8633 360° North 436 502 31,100 1,967 Climbing Washington Center
Fri 01:54:29 PM 35.2917 -77.8619 360° North 454 522 32,900 966 Climbing Washington Center
Fri 01:55:27 PM 35.4253 -77.8581 North 473 544 33,000 50 Climbing Washington Center
Fri 01:56:28 PM 35.5714 -77.8569 360° North 480 552 33,000  Level Washington Center
Fri 01:57:29 PM 35.7028 -77.8556 360° North 474 545 33,000  Level Washington Center
Fri 01:58:29 PM 35.8342 -77.8544 360° North 474 545 33,000  Level Washington Center
Fri 01:59:27 PM 35.9700 -77.8506 North 474 545 33,000  Level Washington Center
Fri 02:00:28 PM 36.0994 -77.8489 North 474 545 33,000 49 Level Washington Center
Fri 02:01:29 PM 36.2328 -77.8503 360° North 474 545 33,100 756 Climbing Washington Center
Fri 02:02:27 PM 36.3622 -77.8436 North 474 545 34,500 966 Climbing Washington Center
Fri 02:03:27 PM 36.4917 -77.8450 360° North 474 545 35,000 248 Climbing Washington Center
Fri 02:04:28 PM 36.6253 -77.8436 360° North 474 545 35,000  Level Washington Center
Fri 02:05:28 PM 36.7506 -77.8289 North 468 539 35,000  Level Washington Center
Fri 02:06:29 PM 36.8728 -77.7728 20° North 456 525 35,000  Level Washington Center
Fri 02:07:29 PM 36.9928 -77.7061 24° Northeast 462 532 35,000  Level Washington Center
Fri 02:08:27 PM 37.1150 -77.6442 22° Northeast 467 537 35,000  Level Washington Center
Fri 02:09:27 PM 37.2328 -77.5744 25° Northeast 462 532 35,000  Level Washington Center
Fri 02:10:27 PM 37.3508 -77.5094 24° Northeast 469 540 35,000  Level Washington Center
Fri 02:11:27 PM 37.4622 -77.4469 24° Northeast 464 534 35,000  Level Washington Center
Fri 02:12:27 PM 37.5989 -77.3742 23° Northeast 472 543 35,000  Level Washington Center
Fri 02:13:28 PM 37.7167 -77.3033 25° Northeast 478 550 35,000 -197 Level Washington Center
Fri 02:14:29 PM 37.8242 -77.2403 25° Northeast 468 539 34,600 -1,008 Descending Washington Center
Fri 02:15:27 PM 37.9564 -77.1642 24° Northeast 460 529 33,000 -1,475 Descending Washington Center
Fri 02:16:27 PM 38.0658 -77.1031 24° Northeast 472 543 31,700 -992 Descending Washington Center
Fri 02:17:28 PM 38.2022 -77.0211 25° Northeast 479 551 31,000 -347 Descending Washington Center
Fri 02:18:28 PM 38.3156 -76.9678 20° North 486 559 31,000  Level Washington Center
Fri 02:19:29 PM 38.4372 -76.8986 24° Northeast 478 550 31,000 -298 Level Washington Center
Fri 02:20:29 PM 38.5608 -76.8289 24° Northeast 478 550 30,400 -1,068 Descending Washington Center
Fri 02:21:27 PM 38.6867 -76.7539 25° Northeast 483 556 28,900 -1,525 Descending Washington Center
Fri 02:22:27 PM 38.7919 -76.6492 38° Northeast 478 550 27,400 -1,250 Descending Washington Center
Fri 02:23:27 PM 38.8931 -76.5331 42° Northeast 478 550 26,400 -934 Descending Washington Center
Fri 02:24:29 PM 38.9897 -76.4169 43° Northeast 478 550 25,500 -885 Descending Washington Center
Fri 02:25:29 PM 39.0864 -76.3031 42° Northeast 468 539 24,600 -763 Descending Washington Center
Fri 02:26:27 PM 39.1808 -76.1914 42° Northeast 463 533 24,000 -1,714 Descending Washington Center
Fri 02:27:28 PM 39.2917 -76.0717 40° Northeast 471 542 21,200 -2,311 Descending Washington Center
Fri 02:28:29 PM 39.3942 -75.9783 35° Northeast 458 527 19,300 -1,835 Descending Washington Center
Fri 02:29:29 PM 39.4883 -75.8872 37° Northeast 437 503 17,500 -1,831 Descending Washington Center
Fri 02:30:27 PM 39.5800 -75.8017 36° Northeast 423 487 15,700 -1,361 Descending Washington Center
Fri 02:32:43 PM 39.7833 -75.6167 35° Northeast 375 432 13,100 -848 Descending Philadelphia TRACON
Fri 02:33:38 PM 39.8500 -75.5500 38° Northeast 363 418 13,000  Descending Philadelphia TRACON
Fri 02:34:43 PM 39.9333 -75.4667 37° Northeast 304 350 13,100 48 Climbing Philadelphia TRACON
Fri 02:35:44 PM 40.0000 -75.4000 37° Northeast 306 352 13,100  Level Philadelphia TRACON
Fri 02:36:44 PM 40.0833 -75.3333 31° Northeast 306 352 13,100  Level Philadelphia TRACON
Fri 02:37:44 PM 40.1500 -75.2667 37° Northeast 309 356 13,100 -650 Level Philadelphia TRACON
Fri 02:38:44 PM 40.2167 -75.2167 30° Northeast 305 351 11,800 -1,450 Descending Philadelphia TRACON
Fri 02:39:44 PM 40.2833 -75.1500 37° Northeast 300 345 10,200 -1,593 Descending Philadelphia TRACON
Fri 02:41:26 PM 40.3833 -75.0333 42° Northeast 288 331 7,500 -1,385 Descending New York TRACON
Fri 02:42:20 PM 40.4333 -74.9667 45° Northeast 276 318 6,600 -1,421 Descending New York TRACON
Fri 02:43:20 PM 40.4833 -74.8833 52° Northeast 268 308 4,800 -1,667 Descending New York TRACON
Fri 02:44:26 PM 40.5167 -74.8000 62° Northeast 267 307 3,100 -850 Descending New York TRACON
Fri 02:45:20 PM 40.5500 -74.7167 62° Northeast 262 302 3,100 -53 Level New York TRACON
Fri 02:46:20 PM 40.5667 -74.6333 75° East 260 299 3,000  Descending New York TRACON
Fri 02:47:20 PM 40.5833 -74.5333 78° East 254 292 3,100 -150 Climbing New York TRACON
Fri 02:48:20 PM 40.6000 -74.4500 75° East 232 267 2,700 -524 Descending New York TRACON
Fri 02:49:26 PM 40.6333 -74.3833 57° Northeast 207 238 2,000 -524 Descending New York TRACON
Fri 02:50:26 PM 40.6667 -74.3167 57° Northeast 215 247 1,600 -200 Descending New York TRACON
Fri 02:51:26 PM 40.7167 -74.2667 37° Northeast 205 236 1,600  Level New York TRACON
Fri 02:52:26 PM 40.7500 -74.2167 49° Northeast 184 212 1,600  Level New York TRACON
Fri 02:53:26 PM 40.7833 -74.1667 49° Northeast 167 192 1,600 -150 Level New York TRACON
Fri 02:54:26 PM 40.8000 -74.1333 57° Northeast 147 169 1,300 -500 Descending New York TRACON
Fri 02:55:26 PM 40.8333 -74.1000 37° Northeast 121 139 600 -700 Descending New York TRACON
Fri 02:57:00 PM 40.8501 -74.0608 62° Northeast  Level Estimated
Fri 03:04:00 PM 40.8501 -74.0608 62° Northeast  Level Estimated

Login

Don't have an account? Register now (free) for customized features, flight alerts, and more!